sensor_id;sensor_type;location;lat;lon;timestamp;temperature;humidity
47576;DHT22;33304;52.456;13.328;2023-05-14T00:00:14;14.20;17.90
47576;DHT22;33304;52.456;13.328;2023-05-14T00:02:41;14.30;18.10
47576;DHT22;33304;52.456;13.328;2023-05-14T00:05:08;14.30;18.10
47576;DHT22;33304;52.456;13.328;2023-05-14T00:07:35;14.20;18.60
47576;DHT22;33304;52.456;13.328;2023-05-14T00:10:05;14.20;18.40
47576;DHT22;33304;52.456;13.328;2023-05-14T00:12:32;14.10;18.50
47576;DHT22;33304;52.456;13.328;2023-05-14T00:14:59;14.10;18.70
47576;DHT22;33304;52.456;13.328;2023-05-14T00:17:26;14.20;18.70
47576;DHT22;33304;52.456;13.328;2023-05-14T00:19:53;14.20;18.60
47576;DHT22;33304;52.456;13.328;2023-05-14T00:22:20;14.10;18.90
47576;DHT22;33304;52.456;13.328;2023-05-14T00:24:47;14.10;18.80
47576;DHT22;33304;52.456;13.328;2023-05-14T00:27:16;14.10;18.90
47576;DHT22;33304;52.456;13.328;2023-05-14T00:29:43;14.10;18.90
47576;DHT22;33304;52.456;13.328;2023-05-14T00:32:10;14.10;18.90
47576;DHT22;33304;52.456;13.328;2023-05-14T00:34:37;14.10;19.20
47576;DHT22;33304;52.456;13.328;2023-05-14T00:37:05;14.10;19.30
47576;DHT22;33304;52.456;13.328;2023-05-14T00:39:32;14.20;19.50
47576;DHT22;33304;52.456;13.328;2023-05-14T00:41:59;14.10;19.50
47576;DHT22;33304;52.456;13.328;2023-05-14T00:44:27;14.10;19.30
47576;DHT22;33304;52.456;13.328;2023-05-14T00:46:54;14.10;19.50
47576;DHT22;33304;52.456;13.328;2023-05-14T00:49:22;14.10;19.70
47576;DHT22;33304;52.456;13.328;2023-05-14T00:51:49;14.10;19.70
47576;DHT22;33304;52.456;13.328;2023-05-14T00:54:17;14.00;20.00
47576;DHT22;33304;52.456;13.328;2023-05-14T00:56:46;14.10;19.90
47576;DHT22;33304;52.456;13.328;2023-05-14T00:59:13;14.10;19.50
47576;DHT22;33304;52.456;13.328;2023-05-14T01:01:41;14.10;19.50
47576;DHT22;33304;52.456;13.328;2023-05-14T01:04:10;14.10;20.40
47576;DHT22;33304;52.456;13.328;2023-05-14T01:06:45;14.10;19.50
47576;DHT22;33304;52.456;13.328;2023-05-14T01:09:25;14.10;19.50
47576;DHT22;33304;52.456;13.328;2023-05-14T01:11:59;14.10;19.50
47576;DHT22;33304;52.456;13.328;2023-05-14T01:14:32;14.10;19.40
47576;DHT22;33304;52.456;13.328;2023-05-14T01:17:03;14.00;19.30
47576;DHT22;33304;52.456;13.328;2023-05-14T01:19:36;13.90;19.40
47576;DHT22;33304;52.456;13.328;2023-05-14T01:22:05;13.90;19.50
47576;DHT22;33304;52.456;13.328;2023-05-14T01:24:32;13.90;19.50
47576;DHT22;33304;52.456;13.328;2023-05-14T01:27:05;13.80;19.50
47576;DHT22;33304;52.456;13.328;2023-05-14T01:29:35;13.90;19.50
47576;DHT22;33304;52.456;13.328;2023-05-14T01:32:05;13.90;19.30
47576;DHT22;33304;52.456;13.328;2023-05-14T01:34:35;13.90;19.60
47576;DHT22;33304;52.456;13.328;2023-05-14T01:37:04;13.80;19.20
47576;DHT22;33304;52.456;13.328;2023-05-14T01:39:33;13.80;19.50
47576;DHT22;33304;52.456;13.328;2023-05-14T01:42:03;13.80;19.70
47576;DHT22;33304;52.456;13.328;2023-05-14T01:44:31;13.70;19.70
47576;DHT22;33304;52.456;13.328;2023-05-14T01:46:59;13.70;19.60
47576;DHT22;33304;52.456;13.328;2023-05-14T01:49:26;13.60;19.20
47576;DHT22;33304;52.456;13.328;2023-05-14T01:51:53;13.60;18.80
47576;DHT22;33304;52.456;13.328;2023-05-14T01:54:22;13.70;18.50
47576;DHT22;33304;52.456;13.328;2023-05-14T01:56:50;13.80;18.50
47576;DHT22;33304;52.456;13.328;2023-05-14T01:59:17;13.60;18.30
47576;DHT22;33304;52.456;13.328;2023-05-14T02:01:44;13.60;18.50
47576;DHT22;33304;52.456;13.328;2023-05-14T02:04:11;13.60;18.00
47576;DHT22;33304;52.456;13.328;2023-05-14T02:06:40;13.60;18.20
47576;DHT22;33304;52.456;13.328;2023-05-14T02:09:08;13.60;18.00
47576;DHT22;33304;52.456;13.328;2023-05-14T02:11:36;13.60;18.10
47576;DHT22;33304;52.456;13.328;2023-05-14T02:14:04;13.60;18.10
47576;DHT22;33304;52.456;13.328;2023-05-14T02:16:31;13.60;17.60
47576;DHT22;33304;52.456;13.328;2023-05-14T02:18:58;13.60;17.70
47576;DHT22;33304;52.456;13.328;2023-05-14T02:21:25;13.70;17.50
47576;DHT22;33304;52.456;13.328;2023-05-14T02:23:52;13.70;17.50
47576;DHT22;33304;52.456;13.328;2023-05-14T02:26:20;13.60;17.10
47576;DHT22;33304;52.456;13.328;2023-05-14T02:28:50;13.70;17.20
47576;DHT22;33304;52.456;13.328;2023-05-14T02:31:18;13.70;17.10
47576;DHT22;33304;52.456;13.328;2023-05-14T02:33:45;13.70;16.70
47576;DHT22;33304;52.456;13.328;2023-05-14T02:36:12;13.70;16.80
47576;DHT22;33304;52.456;13.328;2023-05-14T02:38:39;13.80;16.60
47576;DHT22;33304;52.456;13.328;2023-05-14T02:41:06;13.80;16.70
47576;DHT22;33304;52.456;13.328;2023-05-14T02:43:33;13.80;16.30
47576;DHT22;33304;52.456;13.328;2023-05-14T02:46:01;13.80;16.80
47576;DHT22;33304;52.456;13.328;2023-05-14T02:48:28;13.80;16.70
47576;DHT22;33304;52.456;13.328;2023-05-14T02:50:56;13.80;16.80
47576;DHT22;33304;52.456;13.328;2023-05-14T02:53:23;13.80;16.90
47576;DHT22;33304;52.456;13.328;2023-05-14T02:55:50;13.80;16.60
47576;DHT22;33304;52.456;13.328;2023-05-14T02:58:17;13.80;16.40
47576;DHT22;33304;52.456;13.328;2023-05-14T03:00:44;13.80;16.40
47576;DHT22;33304;52.456;13.328;2023-05-14T03:03:12;13.80;16.20
47576;DHT22;33304;52.456;13.328;2023-05-14T03:05:40;13.90;15.60
47576;DHT22;33304;52.456;13.328;2023-05-14T03:08:07;13.90;15.20
47576;DHT22;33304;52.456;13.328;2023-05-14T03:10:34;13.80;15.80
47576;DHT22;33304;52.456;13.328;2023-05-14T03:13:01;13.80;15.10
47576;DHT22;33304;52.456;13.328;2023-05-14T03:15:29;13.80;15.30
47576;DHT22;33304;52.456;13.328;2023-05-14T03:17:56;13.90;15.10
47576;DHT22;33304;52.456;13.328;2023-05-14T03:20:25;13.90;15.70
47576;DHT22;33304;52.456;13.328;2023-05-14T03:22:52;13.90;15.10
47576;DHT22;33304;52.456;13.328;2023-05-14T03:25:21;14.00;15.20
47576;DHT22;33304;52.456;13.328;2023-05-14T03:27:48;14.00;15.10
47576;DHT22;33304;52.456;13.328;2023-05-14T03:30:15;14.00;15.10
47576;DHT22;33304;52.456;13.328;2023-05-14T03:32:42;14.00;15.20
47576;DHT22;33304;52.456;13.328;2023-05-14T03:35:09;14.00;15.10
47576;DHT22;33304;52.456;13.328;2023-05-14T03:37:37;14.00;15.10
47576;DHT22;33304;52.456;13.328;2023-05-14T03:40:06;14.00;15.20
47576;DHT22;33304;52.456;13.328;2023-05-14T03:42:35;14.00;15.10
47576;DHT22;33304;52.456;13.328;2023-05-14T03:45:03;14.10;15.20
47576;DHT22;33304;52.456;13.328;2023-05-14T03:47:30;14.10;15.30
47576;DHT22;33304;52.456;13.328;2023-05-14T03:49:58;14.10;15.20
47576;DHT22;33304;52.456;13.328;2023-05-14T03:52:25;14.10;15.20
47576;DHT22;33304;52.456;13.328;2023-05-14T03:54:54;14.10;15.20
47576;DHT22;33304;52.456;13.328;2023-05-14T03:57:21;14.10;15.20
47576;DHT22;33304;52.456;13.328;2023-05-14T03:59:48;14.10;15.30
47576;DHT22;33304;52.456;13.328;2023-05-14T04:02:15;14.00;15.10
47576;DHT22;33304;52.456;13.328;2023-05-14T04:04:42;14.00;15.10
47576;DHT22;33304;52.456;13.328;2023-05-14T04:07:09;13.80;15.00
47576;DHT22;33304;52.456;13.328;2023-05-14T04:09:36;13.80;15.00
47576;DHT22;33304;52.456;13.328;2023-05-14T04:12:06;13.70;15.50
47576;DHT22;33304;52.456;13.328;2023-05-14T04:14:33;13.80;15.00
47576;DHT22;33304;52.456;13.328;2023-05-14T04:17:00;13.90;15.10
47576;DHT22;33304;52.456;13.328;2023-05-14T04:19:27;13.80;15.40
47576;DHT22;33304;52.456;13.328;2023-05-14T04:21:54;13.80;15.50
47576;DHT22;33304;52.456;13.328;2023-05-14T04:24:22;13.80;15.90
47576;DHT22;33304;52.456;13.328;2023-05-14T04:26:49;13.70;15.90
47576;DHT22;33304;52.456;13.328;2023-05-14T04:29:17;13.60;16.40
47576;DHT22;33304;52.456;13.328;2023-05-14T04:31:44;13.60;16.20
47576;DHT22;33304;52.456;13.328;2023-05-14T04:34:11;13.60;16.10
47576;DHT22;33304;52.456;13.328;2023-05-14T04:36:38;13.70;16.40
47576;DHT22;33304;52.456;13.328;2023-05-14T04:39:06;13.60;16.80
47576;DHT22;33304;52.456;13.328;2023-05-14T04:41:34;13.60;16.40
47576;DHT22;33304;52.456;13.328;2023-05-14T04:44:01;13.70;16.70
47576;DHT22;33304;52.456;13.328;2023-05-14T04:46:30;13.70;16.70
47576;DHT22;33304;52.456;13.328;2023-05-14T04:48:57;13.70;16.30
47576;DHT22;33304;52.456;13.328;2023-05-14T04:51:24;13.70;16.40
47576;DHT22;33304;52.456;13.328;2023-05-14T04:53:51;13.80;16.20
47576;DHT22;33304;52.456;13.328;2023-05-14T04:56:18;13.80;15.90
47576;DHT22;33304;52.456;13.328;2023-05-14T04:58:46;13.80;16.40
47576;DHT22;33304;52.456;13.328;2023-05-14T05:01:13;13.80;16.00
47576;DHT22;33304;52.456;13.328;2023-05-14T05:03:42;13.90;15.60
47576;DHT22;33304;52.456;13.328;2023-05-14T05:06:09;14.00;15.10
47576;DHT22;33304;52.456;13.328;2023-05-14T05:08:36;14.10;15.20
47576;DHT22;33304;52.456;13.328;2023-05-14T05:11:03;14.20;15.30
47576;DHT22;33304;52.456;13.328;2023-05-14T05:13:30;14.20;15.30
47576;DHT22;33304;52.456;13.328;2023-05-14T05:15:57;14.30;15.40
47576;DHT22;33304;52.456;13.328;2023-05-14T05:18:25;14.30;14.60
47576;DHT22;33304;52.456;13.328;2023-05-14T05:20:53;14.30;13.90
47576;DHT22;33304;52.456;13.328;2023-05-14T05:23:20;14.30;13.90
47576;DHT22;33304;52.456;13.328;2023-05-14T05:25:48;14.30;13.50
47576;DHT22;33304;52.456;13.328;2023-05-14T05:28:16;14.30;13.10
47576;DHT22;33304;52.456;13.328;2023-05-14T05:30:43;14.30;13.30
47576;DHT22;33304;52.456;13.328;2023-05-14T05:33:11;14.30;13.80
47576;DHT22;33304;52.456;13.328;2023-05-14T05:35:38;14.30;14.00
47576;DHT22;33304;52.456;13.328;2023-05-14T05:38:06;14.30;13.70
47576;DHT22;33304;52.456;13.328;2023-05-14T05:40:33;14.30;13.90
47576;DHT22;33304;52.456;13.328;2023-05-14T05:43:01;14.30;13.90
47576;DHT22;33304;52.456;13.328;2023-05-14T05:45:28;14.30;14.00
47576;DHT22;33304;52.456;13.328;2023-05-14T05:47:55;14.30;14.60
47576;DHT22;33304;52.456;13.328;2023-05-14T05:50:22;14.40;14.00
47576;DHT22;33304;52.456;13.328;2023-05-14T05:52:49;14.50;14.10
47576;DHT22;33304;52.456;13.328;2023-05-14T05:55:18;14.70;13.60
47576;DHT22;33304;52.456;13.328;2023-05-14T05:57:45;14.70;13.50
47576;DHT22;33304;52.456;13.328;2023-05-14T06:00:13;14.70;13.30
47576;DHT22;33304;52.456;13.328;2023-05-14T06:02:40;14.70;13.20
47576;DHT22;33304;52.456;13.328;2023-05-14T06:05:07;14.80;12.80
47576;DHT22;33304;52.456;13.328;2023-05-14T06:07:35;14.80;12.90
47576;DHT22;33304;52.456;13.328;2023-05-14T06:10:03;14.80;12.90
47576;DHT22;33304;52.456;13.328;2023-05-14T06:12:32;14.80;12.90
47576;DHT22;33304;52.456;13.328;2023-05-14T06:14:59;14.90;13.00
47576;DHT22;33304;52.456;13.328;2023-05-14T06:17:26;15.00;12.90
47576;DHT22;33304;52.456;13.328;2023-05-14T06:19:53;15.00;12.10
47576;DHT22;33304;52.456;13.328;2023-05-14T06:22:20;15.20;12.70
47576;DHT22;33304;52.456;13.328;2023-05-14T06:24:47;15.40;12.30
47576;DHT22;33304;52.456;13.328;2023-05-14T06:27:15;15.50;12.30
47576;DHT22;33304;52.456;13.328;2023-05-14T06:29:43;15.50;12.00
47576;DHT22;33304;52.456;13.328;2023-05-14T06:32:10;15.50;11.60
47576;DHT22;33304;52.456;13.328;2023-05-14T06:34:40;15.50;11.70
47576;DHT22;33304;52.456;13.328;2023-05-14T06:37:07;15.50;11.60
47576;DHT22;33304;52.456;13.328;2023-05-14T06:39:35;15.60;11.10
47576;DHT22;33304;52.456;13.328;2023-05-14T06:42:02;15.80;10.80
47576;DHT22;33304;52.456;13.328;2023-05-14T06:44:30;15.90;10.90
47576;DHT22;33304;52.456;13.328;2023-05-14T06:46:59;16.00;10.30
47576;DHT22;33304;52.456;13.328;2023-05-14T06:49:26;16.20;10.50
47576;DHT22;33304;52.456;13.328;2023-05-14T06:51:53;16.30;10.30
47576;DHT22;33304;52.456;13.328;2023-05-14T06:54:20;16.30;9.60
47576;DHT22;33304;52.456;13.328;2023-05-14T06:56:47;16.40;9.50
47576;DHT22;33304;52.456;13.328;2023-05-14T06:59:14;16.40;8.80
47576;DHT22;33304;52.456;13.328;2023-05-14T07:01:41;16.50;8.60
47576;DHT22;33304;52.456;13.328;2023-05-14T07:04:10;16.60;8.00
47576;DHT22;33304;52.456;13.328;2023-05-14T07:06:37;16.70;8.70
47576;DHT22;33304;52.456;13.328;2023-05-14T07:09:04;16.70;8.20
47576;DHT22;33304;52.456;13.328;2023-05-14T07:11:31;16.70;8.30
47576;DHT22;33304;52.456;13.328;2023-05-14T07:13:58;16.80;7.90
47576;DHT22;33304;52.456;13.328;2023-05-14T07:16:25;16.90;7.50
47576;DHT22;33304;52.456;13.328;2023-05-14T07:18:53;17.10;7.30
47576;DHT22;33304;52.456;13.328;2023-05-14T07:21:21;17.20;7.40
47576;DHT22;33304;52.456;13.328;2023-05-14T07:23:48;17.30;7.50
47576;DHT22;33304;52.456;13.328;2023-05-14T07:26:15;17.40;7.50
47576;DHT22;33304;52.456;13.328;2023-05-14T07:28:42;17.40;7.50
47576;DHT22;33304;52.456;13.328;2023-05-14T07:31:10;17.50;7.60
47576;DHT22;33304;52.456;13.328;2023-05-14T07:33:37;17.50;6.80
47576;DHT22;33304;52.456;13.328;2023-05-14T07:36:04;17.50;6.70
47576;DHT22;33304;52.456;13.328;2023-05-14T07:38:33;17.60;6.70
47576;DHT22;33304;52.456;13.328;2023-05-14T07:41:00;17.80;6.30
47576;DHT22;33304;52.456;13.328;2023-05-14T07:43:27;17.80;5.80
47576;DHT22;33304;52.456;13.328;2023-05-14T07:45:54;18.00;5.80
47576;DHT22;33304;52.456;13.328;2023-05-14T07:48:21;18.10;5.30
47576;DHT22;33304;52.456;13.328;2023-05-14T07:50:48;18.20;5.30
47576;DHT22;33304;52.456;13.328;2023-05-14T07:53:16;18.30;3.60
47576;DHT22;33304;52.456;13.328;2023-05-14T07:55:45;18.40;3.70
47576;DHT22;33304;52.456;13.328;2023-05-14T07:58:13;18.50;3.20
47576;DHT22;33304;52.456;13.328;2023-05-14T08:00:41;18.40;2.30
47576;DHT22;33304;52.456;13.328;2023-05-14T08:03:08;18.50;2.20
47576;DHT22;33304;52.456;13.328;2023-05-14T08:05:35;18.40;2.50
47576;DHT22;33304;52.456;13.328;2023-05-14T08:08:02;18.50;2.30
47576;DHT22;33304;52.456;13.328;2023-05-14T08:10:29;18.60;1.60
47576;DHT22;33304;52.456;13.328;2023-05-14T08:12:57;18.70;1.40
47576;DHT22;33304;52.456;13.328;2023-05-14T08:15:24;19.00;1.00
47576;DHT22;33304;52.456;13.328;2023-05-14T08:17:51;19.10;1.10
47576;DHT22;33304;52.456;13.328;2023-05-14T08:20:19;19.10;1.50
47576;DHT22;33304;52.456;13.328;2023-05-14T08:22:46;19.10;1.00
47576;DHT22;33304;52.456;13.328;2023-05-14T08:25:13;19.00;1.00
47576;DHT22;33304;52.456;13.328;2023-05-14T08:27:40;19.30;1.00
47576;DHT22;33304;52.456;13.328;2023-05-14T08:30:09;19.30;1.00
47576;DHT22;33304;52.456;13.328;2023-05-14T08:32:36;19.40;1.00
47576;DHT22;33304;52.456;13.328;2023-05-14T08:35:05;19.50;1.00
47576;DHT22;33304;52.456;13.328;2023-05-14T08:37:32;19.50;1.00
47576;DHT22;33304;52.456;13.328;2023-05-14T08:39:59;19.60;1.00
47576;DHT22;33304;52.456;13.328;2023-05-14T08:42:27;19.70;1.00
47576;DHT22;33304;52.456;13.328;2023-05-14T08:44:59;19.80;1.00
47576;DHT22;33304;52.456;13.328;2023-05-14T08:47:29;19.80;1.00
47576;DHT22;33304;52.456;13.328;2023-05-14T08:50:00;19.70;1.00
47576;DHT22;33304;52.456;13.328;2023-05-14T08:52:29;19.80;1.00
47576;DHT22;33304;52.456;13.328;2023-05-14T08:54:58;19.80;1.00
47576;DHT22;33304;52.456;13.328;2023-05-14T08:57:27;20.00;1.00
47576;DHT22;33304;52.456;13.328;2023-05-14T08:59:56;20.10;1.00
47576;DHT22;33304;52.456;13.328;2023-05-14T09:02:26;20.20;1.00
47576;DHT22;33304;52.456;13.328;2023-05-14T09:04:57;20.30;1.00
47576;DHT22;33304;52.456;13.328;2023-05-14T09:07:24;20.40;1.00
47576;DHT22;33304;52.456;13.328;2023-05-14T09:09:52;20.50;1.00
47576;DHT22;33304;52.456;13.328;2023-05-14T09:12:19;20.40;1.00
47576;DHT22;33304;52.456;13.328;2023-05-14T09:14:48;20.60;1.00
47576;DHT22;33304;52.456;13.328;2023-05-14T09:17:16;20.80;1.00
47576;DHT22;33304;52.456;13.328;2023-05-14T09:19:45;20.90;1.00
47576;DHT22;33304;52.456;13.328;2023-05-14T09:22:16;21.00;1.00
47576;DHT22;33304;52.456;13.328;2023-05-14T09:24:44;21.10;1.00
47576;DHT22;33304;52.456;13.328;2023-05-14T09:27:17;21.20;1.00
47576;DHT22;33304;52.456;13.328;2023-05-14T09:29:45;21.00;1.00
47576;DHT22;33304;52.456;13.328;2023-05-14T09:32:13;21.20;1.00
47576;DHT22;33304;52.456;13.328;2023-05-14T09:34:40;21.20;1.00
47576;DHT22;33304;52.456;13.328;2023-05-14T09:37:08;21.30;1.00
47576;DHT22;33304;52.456;13.328;2023-05-14T09:39:37;21.20;1.00
47576;DHT22;33304;52.456;13.328;2023-05-14T09:42:04;21.10;1.00
47576;DHT22;33304;52.456;13.328;2023-05-14T09:44:31;21.00;1.00
47576;DHT22;33304;52.456;13.328;2023-05-14T09:47:01;21.20;1.00
47576;DHT22;33304;52.456;13.328;2023-05-14T09:49:29;21.40;1.00
47576;DHT22;33304;52.456;13.328;2023-05-14T09:51:56;21.40;1.00
47576;DHT22;33304;52.456;13.328;2023-05-14T09:54:24;21.60;1.00
47576;DHT22;33304;52.456;13.328;2023-05-14T09:56:53;21.70;1.00
47576;DHT22;33304;52.456;13.328;2023-05-14T09:59:20;21.60;1.00
47576;DHT22;33304;52.456;13.328;2023-05-14T10:01:48;21.50;1.00
47576;DHT22;33304;52.456;13.328;2023-05-14T10:04:15;21.60;1.00
47576;DHT22;33304;52.456;13.328;2023-05-14T10:06:47;21.70;1.00
47576;DHT22;33304;52.456;13.328;2023-05-14T10:09:18;21.50;1.00
47576;DHT22;33304;52.456;13.328;2023-05-14T10:11:52;21.40;1.00
47576;DHT22;33304;52.456;13.328;2023-05-14T10:14:27;21.30;1.00
47576;DHT22;33304;52.456;13.328;2023-05-14T10:16:58;21.20;1.00
47576;DHT22;33304;52.456;13.328;2023-05-14T10:19:27;21.00;1.00
47576;DHT22;33304;52.456;13.328;2023-05-14T10:22:03;20.90;1.00
47576;DHT22;33304;52.456;13.328;2023-05-14T10:24:31;20.80;1.00
47576;DHT22;33304;52.456;13.328;2023-05-14T10:27:00;20.90;1.00
47576;DHT22;33304;52.456;13.328;2023-05-14T10:29:34;20.80;1.00
47576;DHT22;33304;52.456;13.328;2023-05-14T10:32:03;20.60;1.00
47576;DHT22;33304;52.456;13.328;2023-05-14T10:34:35;20.50;1.00
47576;DHT22;33304;52.456;13.328;2023-05-14T10:37:08;20.40;1.00
47576;DHT22;33304;52.456;13.328;2023-05-14T10:39:40;20.30;1.00
47576;DHT22;33304;52.456;13.328;2023-05-14T10:42:10;20.10;1.00
47576;DHT22;33304;52.456;13.328;2023-05-14T10:44:41;20.10;1.00
47576;DHT22;33304;52.456;13.328;2023-05-14T10:47:11;20.10;1.00
47576;DHT22;33304;52.456;13.328;2023-05-14T10:49:38;20.10;1.00
47576;DHT22;33304;52.456;13.328;2023-05-14T10:52:07;20.10;1.00
47576;DHT22;33304;52.456;13.328;2023-05-14T10:54:35;20.10;1.00
47576;DHT22;33304;52.456;13.328;2023-05-14T10:57:02;20.00;1.00
47576;DHT22;33304;52.456;13.328;2023-05-14T10:59:32;20.00;1.00
47576;DHT22;33304;52.456;13.328;2023-05-14T11:01:59;20.10;1.00
47576;DHT22;33304;52.456;13.328;2023-05-14T11:04:30;20.00;1.00
47576;DHT22;33304;52.456;13.328;2023-05-14T11:06:58;20.00;1.00
47576;DHT22;33304;52.456;13.328;2023-05-14T11:09:26;20.00;1.00
47576;DHT22;33304;52.456;13.328;2023-05-14T11:11:54;20.00;1.00
47576;DHT22;33304;52.456;13.328;2023-05-14T11:14:21;20.00;1.00
47576;DHT22;33304;52.456;13.328;2023-05-14T11:16:50;20.00;1.00
47576;DHT22;33304;52.456;13.328;2023-05-14T11:19:20;20.10;1.00
47576;DHT22;33304;52.456;13.328;2023-05-14T11:21:47;20.10;1.00
47576;DHT22;33304;52.456;13.328;2023-05-14T11:24:14;20.10;1.00
47576;DHT22;33304;52.456;13.328;2023-05-14T11:26:41;19.90;1.00
47576;DHT22;33304;52.456;13.328;2023-05-14T11:29:09;19.90;1.00
47576;DHT22;33304;52.456;13.328;2023-05-14T11:31:36;19.90;1.00
47576;DHT22;33304;52.456;13.328;2023-05-14T11:34:05;19.70;1.00
47576;DHT22;33304;52.456;13.328;2023-05-14T11:36:35;19.70;1.00
47576;DHT22;33304;52.456;13.328;2023-05-14T11:39:02;19.90;1.00
47576;DHT22;33304;52.456;13.328;2023-05-14T11:41:29;20.00;1.00
47576;DHT22;33304;52.456;13.328;2023-05-14T11:43:57;19.90;1.00
47576;DHT22;33304;52.456;13.328;2023-05-14T11:46:24;19.90;1.00
47576;DHT22;33304;52.456;13.328;2023-05-14T11:48:52;20.00;1.00
47576;DHT22;33304;52.456;13.328;2023-05-14T11:51:21;20.10;1.00
47576;DHT22;33304;52.456;13.328;2023-05-14T11:53:49;20.30;1.00
47576;DHT22;33304;52.456;13.328;2023-05-14T11:56:16;20.40;1.00
47576;DHT22;33304;52.456;13.328;2023-05-14T11:58:47;20.50;1.00
47576;DHT22;33304;52.456;13.328;2023-05-14T12:01:14;20.50;1.00
47576;DHT22;33304;52.456;13.328;2023-05-14T12:03:41;20.60;1.00
47576;DHT22;33304;52.456;13.328;2023-05-14T12:06:08;20.50;1.00
47576;DHT22;33304;52.456;13.328;2023-05-14T12:08:37;20.50;1.00
47576;DHT22;33304;52.456;13.328;2023-05-14T12:11:04;20.30;1.00
47576;DHT22;33304;52.456;13.328;2023-05-14T12:13:31;20.30;1.00
47576;DHT22;33304;52.456;13.328;2023-05-14T12:16:00;20.20;1.00
47576;DHT22;33304;52.456;13.328;2023-05-14T12:18:28;20.20;1.00
47576;DHT22;33304;52.456;13.328;2023-05-14T12:21:01;20.20;1.00
47576;DHT22;33304;52.456;13.328;2023-05-14T12:23:30;20.20;1.00
47576;DHT22;33304;52.456;13.328;2023-05-14T12:26:02;20.30;1.00
47576;DHT22;33304;52.456;13.328;2023-05-14T12:28:31;20.30;1.00
47576;DHT22;33304;52.456;13.328;2023-05-14T12:30:58;20.40;1.00
47576;DHT22;33304;52.456;13.328;2023-05-14T12:33:26;20.40;1.00
47576;DHT22;33304;52.456;13.328;2023-05-14T12:35:53;20.60;1.00
47576;DHT22;33304;52.456;13.328;2023-05-14T12:38:22;20.70;1.00
47576;DHT22;33304;52.456;13.328;2023-05-14T12:40:49;20.80;1.00
47576;DHT22;33304;52.456;13.328;2023-05-14T12:43:19;21.00;1.00
47576;DHT22;33304;52.456;13.328;2023-05-14T12:45:46;21.30;1.00
47576;DHT22;33304;52.456;13.328;2023-05-14T12:48:13;21.40;1.00
47576;DHT22;33304;52.456;13.328;2023-05-14T12:50:40;21.60;1.00
47576;DHT22;33304;52.456;13.328;2023-05-14T12:53:07;21.70;1.00
47576;DHT22;33304;52.456;13.328;2023-05-14T12:55:34;21.70;1.00
47576;DHT22;33304;52.456;13.328;2023-05-14T12:58:01;21.60;1.00
47576;DHT22;33304;52.456;13.328;2023-05-14T13:00:30;21.40;1.00
47576;DHT22;33304;52.456;13.328;2023-05-14T13:02:57;21.50;1.00
47576;DHT22;33304;52.456;13.328;2023-05-14T13:05:25;21.70;1.00
47576;DHT22;33304;52.456;13.328;2023-05-14T13:07:52;21.90;1.00
47576;DHT22;33304;52.456;13.328;2023-05-14T13:10:19;21.90;1.00
47576;DHT22;33304;52.456;13.328;2023-05-14T13:12:46;21.80;1.00
47576;DHT22;33304;52.456;13.328;2023-05-14T13:15:14;21.60;1.00
47576;DHT22;33304;52.456;13.328;2023-05-14T13:17:42;21.60;1.00
47576;DHT22;33304;52.456;13.328;2023-05-14T13:20:10;21.30;1.00
47576;DHT22;33304;52.456;13.328;2023-05-14T13:22:37;21.20;1.00
47576;DHT22;33304;52.456;13.328;2023-05-14T13:25:05;21.00;1.00
47576;DHT22;33304;52.456;13.328;2023-05-14T13:27:32;20.90;1.00
47576;DHT22;33304;52.456;13.328;2023-05-14T13:30:00;20.90;1.00
47576;DHT22;33304;52.456;13.328;2023-05-14T13:32:27;20.80;1.00
47576;DHT22;33304;52.456;13.328;2023-05-14T13:34:56;20.80;1.00
47576;DHT22;33304;52.456;13.328;2023-05-14T13:37:24;20.80;1.00
47576;DHT22;33304;52.456;13.328;2023-05-14T13:39:51;20.80;1.00
47576;DHT22;33304;52.456;13.328;2023-05-14T13:42:18;21.00;1.00
47576;DHT22;33304;52.456;13.328;2023-05-14T13:44:45;21.10;1.00
47576;DHT22;33304;52.456;13.328;2023-05-14T13:47:12;21.20;1.00
47576;DHT22;33304;52.456;13.328;2023-05-14T13:49:39;21.30;1.00
47576;DHT22;33304;52.456;13.328;2023-05-14T13:52:08;21.20;1.00
47576;DHT22;33304;52.456;13.328;2023-05-14T13:54:35;21.20;1.00
47576;DHT22;33304;52.456;13.328;2023-05-14T13:57:02;21.10;1.00
47576;DHT22;33304;52.456;13.328;2023-05-14T13:59:29;21.00;1.00
47576;DHT22;33304;52.456;13.328;2023-05-14T14:01:56;20.90;1.00
47576;DHT22;33304;52.456;13.328;2023-05-14T14:04:23;20.80;1.00
47576;DHT22;33304;52.456;13.328;2023-05-14T14:06:53;20.70;1.00
47576;DHT22;33304;52.456;13.328;2023-05-14T14:09:22;20.50;1.00
47576;DHT22;33304;52.456;13.328;2023-05-14T14:11:52;20.50;1.00
47576;DHT22;33304;52.456;13.328;2023-05-14T14:14:20;20.40;1.00
47576;DHT22;33304;52.456;13.328;2023-05-14T14:16:47;20.40;1.00
47576;DHT22;33304;52.456;13.328;2023-05-14T14:19:14;20.40;1.00
47576;DHT22;33304;52.456;13.328;2023-05-14T14:21:41;20.30;1.00
47576;DHT22;33304;52.456;13.328;2023-05-14T14:24:08;20.30;1.00
47576;DHT22;33304;52.456;13.328;2023-05-14T14:26:36;20.20;1.00
47576;DHT22;33304;52.456;13.328;2023-05-14T14:29:04;20.10;1.00
47576;DHT22;33304;52.456;13.328;2023-05-14T14:31:31;20.20;1.00
47576;DHT22;33304;52.456;13.328;2023-05-14T14:33:58;20.20;1.00
47576;DHT22;33304;52.456;13.328;2023-05-14T14:36:25;20.20;1.00
47576;DHT22;33304;52.456;13.328;2023-05-14T14:38:53;20.30;1.00
47576;DHT22;33304;52.456;13.328;2023-05-14T14:41:20;20.30;1.00
47576;DHT22;33304;52.456;13.328;2023-05-14T14:43:49;20.30;1.00
47576;DHT22;33304;52.456;13.328;2023-05-14T14:46:16;20.40;1.00
47576;DHT22;33304;52.456;13.328;2023-05-14T14:48:44;20.40;1.00
47576;DHT22;33304;52.456;13.328;2023-05-14T14:51:11;20.30;1.00
47576;DHT22;33304;52.456;13.328;2023-05-14T14:53:38;20.40;1.00
47576;DHT22;33304;52.456;13.328;2023-05-14T14:56:06;20.50;1.00
47576;DHT22;33304;52.456;13.328;2023-05-14T14:58:33;20.60;1.00
47576;DHT22;33304;52.456;13.328;2023-05-14T15:01:02;20.70;1.00
47576;DHT22;33304;52.456;13.328;2023-05-14T15:03:30;20.80;1.00
47576;DHT22;33304;52.456;13.328;2023-05-14T15:05:57;20.90;1.00
47576;DHT22;33304;52.456;13.328;2023-05-14T15:08:25;21.00;1.00
47576;DHT22;33304;52.456;13.328;2023-05-14T15:10:52;21.10;1.00
47576;DHT22;33304;52.456;13.328;2023-05-14T15:13:19;21.20;1.00
47576;DHT22;33304;52.456;13.328;2023-05-14T15:15:48;21.30;1.00
47576;DHT22;33304;52.456;13.328;2023-05-14T15:18:17;21.40;1.00
47576;DHT22;33304;52.456;13.328;2023-05-14T15:20:44;21.60;1.00
47576;DHT22;33304;52.456;13.328;2023-05-14T15:23:11;21.60;1.00
47576;DHT22;33304;52.456;13.328;2023-05-14T15:25:38;21.60;1.00
47576;DHT22;33304;52.456;13.328;2023-05-14T15:28:06;21.70;1.00